sensor_id;sensor_type;location;lat;lon;timestamp;P1;durP1;ratioP1;P2;durP2;ratioP2
30185;SDS011;31152;49.190;8.122;2023-05-06T00:01:25;8.88;;;5.30;;
30185;SDS011;31152;49.190;8.122;2023-05-06T00:03:52;6.50;;;5.07;;
30185;SDS011;31152;49.190;8.122;2023-05-06T00:06:19;6.95;;;5.50;;
30185;SDS011;31152;49.190;8.122;2023-05-06T00:08:49;9.63;;;5.20;;
30185;SDS011;31152;49.190;8.122;2023-05-06T00:11:21;12.20;;;5.15;;
30185;SDS011;31152;49.190;8.122;2023-05-06T00:13:54;9.40;;;5.10;;
30185;SDS011;31152;49.190;8.122;2023-05-06T00:16:23;6.78;;;4.90;;
30185;SDS011;31152;49.190;8.122;2023-05-06T00:18:56;8.40;;;5.60;;
30185;SDS011;31152;49.190;8.122;2023-05-06T00:21:23;7.97;;;4.82;;
30185;SDS011;31152;49.190;8.122;2023-05-06T00:23:52;7.25;;;5.05;;
30185;SDS011;31152;49.190;8.122;2023-05-06T00:26:19;9.57;;;5.35;;
30185;SDS011;31152;49.190;8.122;2023-05-06T00:28:46;10.88;;;5.72;;
30185;SDS011;31152;49.190;8.122;2023-05-06T00:31:16;8.63;;;5.47;;
30185;SDS011;31152;49.190;8.122;2023-05-06T00:33:45;14.23;;;5.47;;
30185;SDS011;31152;49.190;8.122;2023-05-06T00:36:17;7.40;;;5.88;;
30185;SDS011;31152;49.190;8.122;2023-05-06T00:38:46;10.98;;;6.63;;
30185;SDS011;31152;49.190;8.122;2023-05-06T00:41:13;10.07;;;5.97;;
30185;SDS011;31152;49.190;8.122;2023-05-06T00:43:39;12.27;;;6.43;;
30185;SDS011;31152;49.190;8.122;2023-05-06T00:46:09;10.52;;;6.70;;
30185;SDS011;31152;49.190;8.122;2023-05-06T00:48:36;12.50;;;6.97;;
30185;SDS011;31152;49.190;8.122;2023-05-06T00:51:04;10.20;;;6.90;;
30185;SDS011;31152;49.190;8.122;2023-05-06T00:53:30;12.18;;;7.55;;
30185;SDS011;31152;49.190;8.122;2023-05-06T00:56:00;9.88;;;7.78;;
30185;SDS011;31152;49.190;8.122;2023-05-06T00:58:27;10.40;;;6.82;;
30185;SDS011;31152;49.190;8.122;2023-05-06T01:00:54;11.48;;;6.90;;
30185;SDS011;31152;49.190;8.122;2023-05-06T01:03:21;13.80;;;7.40;;
30185;SDS011;31152;49.190;8.122;2023-05-06T01:06:03;10.63;;;7.05;;
30185;SDS011;31152;49.190;8.122;2023-05-06T01:11:32;10.18;;;6.57;;
30185;SDS011;31152;49.190;8.122;2023-05-06T01:16:54;14.48;;;6.85;;
30185;SDS011;31152;49.190;8.122;2023-05-06T01:22:11;10.75;;;7.38;;
30185;SDS011;31152;49.190;8.122;2023-05-06T01:24:41;12.45;;;6.70;;
30185;SDS011;31152;49.190;8.122;2023-05-06T01:27:11;11.15;;;6.95;;
30185;SDS011;31152;49.190;8.122;2023-05-06T01:29:43;12.50;;;7.22;;
30185;SDS011;31152;49.190;8.122;2023-05-06T01:35:11;11.23;;;7.03;;
30185;SDS011;31152;49.190;8.122;2023-05-06T01:37:49;11.30;;;6.95;;
30185;SDS011;31152;49.190;8.122;2023-05-06T01:40:26;12.15;;;6.60;;
30185;SDS011;31152;49.190;8.122;2023-05-06T01:42:55;10.25;;;7.00;;
30185;SDS011;31152;49.190;8.122;2023-05-06T01:45:26;11.52;;;7.00;;
30185;SDS011;31152;49.190;8.122;2023-05-06T01:47:54;10.85;;;7.18;;
30185;SDS011;31152;49.190;8.122;2023-05-06T01:50:25;11.13;;;7.82;;
30185;SDS011;31152;49.190;8.122;2023-05-06T01:52:59;11.65;;;7.10;;
30185;SDS011;31152;49.190;8.122;2023-05-06T01:55:27;11.38;;;7.57;;
30185;SDS011;31152;49.190;8.122;2023-05-06T01:57:57;10.75;;;6.85;;
30185;SDS011;31152;49.190;8.122;2023-05-06T02:00:24;11.15;;;6.80;;
30185;SDS011;31152;49.190;8.122;2023-05-06T02:02:51;13.48;;;7.47;;
30185;SDS011;31152;49.190;8.122;2023-05-06T02:05:20;10.88;;;7.32;;
30185;SDS011;31152;49.190;8.122;2023-05-06T02:07:47;13.20;;;8.10;;
30185;SDS011;31152;49.190;8.122;2023-05-06T02:10:14;9.50;;;7.10;;
30185;SDS011;31152;49.190;8.122;2023-05-06T02:12:40;13.20;;;7.97;;
30185;SDS011;31152;49.190;8.122;2023-05-06T02:15:07;13.77;;;7.55;;
30185;SDS011;31152;49.190;8.122;2023-05-06T02:17:35;12.68;;;7.32;;
30185;SDS011;31152;49.190;8.122;2023-05-06T02:20:04;9.50;;;6.95;;
30185;SDS011;31152;49.190;8.122;2023-05-06T02:22:34;13.10;;;7.22;;
30185;SDS011;31152;49.190;8.122;2023-05-06T02:25:01;13.70;;;7.45;;
30185;SDS011;31152;49.190;8.122;2023-05-06T02:27:29;11.50;;;7.35;;
30185;SDS011;31152;49.190;8.122;2023-05-06T02:29:55;13.18;;;7.65;;
30185;SDS011;31152;49.190;8.122;2023-05-06T02:32:22;11.00;;;7.30;;
30185;SDS011;31152;49.190;8.122;2023-05-06T02:34:49;14.05;;;7.38;;
30185;SDS011;31152;49.190;8.122;2023-05-06T02:37:19;12.05;;;7.80;;
30185;SDS011;31152;49.190;8.122;2023-05-06T02:39:46;11.93;;;7.88;;
30185;SDS011;31152;49.190;8.122;2023-05-06T02:42:12;14.63;;;8.48;;
30185;SDS011;31152;49.190;8.122;2023-05-06T02:44:40;15.57;;;8.60;;
30185;SDS011;31152;49.190;8.122;2023-05-06T02:47:09;12.73;;;8.18;;
30185;SDS011;31152;49.190;8.122;2023-05-06T02:49:36;13.05;;;8.95;;
30185;SDS011;31152;49.190;8.122;2023-05-06T02:52:05;13.60;;;9.18;;
30185;SDS011;31152;49.190;8.122;2023-05-06T02:54:32;13.07;;;9.13;;
30185;SDS011;31152;49.190;8.122;2023-05-06T02:56:59;19.55;;;9.82;;
30185;SDS011;31152;49.190;8.122;2023-05-06T02:59:26;15.02;;;9.95;;
30185;SDS011;31152;49.190;8.122;2023-05-06T03:01:52;25.10;;;11.43;;
30185;SDS011;31152;49.190;8.122;2023-05-06T03:04:19;16.48;;;10.63;;
30185;SDS011;31152;49.190;8.122;2023-05-06T03:06:46;18.05;;;11.20;;
30185;SDS011;31152;49.190;8.122;2023-05-06T03:09:16;19.05;;;11.75;;
30185;SDS011;31152;49.190;8.122;2023-05-06T03:11:42;20.17;;;11.20;;
30185;SDS011;31152;49.190;8.122;2023-05-06T03:14:09;18.00;;;11.00;;
30185;SDS011;31152;49.190;8.122;2023-05-06T03:16:36;20.05;;;11.65;;
30185;SDS011;31152;49.190;8.122;2023-05-06T03:19:05;15.18;;;10.90;;
30185;SDS011;31152;49.190;8.122;2023-05-06T03:21:32;18.45;;;10.75;;
30185;SDS011;31152;49.190;8.122;2023-05-06T03:24:01;18.35;;;11.50;;
30185;SDS011;31152;49.190;8.122;2023-05-06T03:26:28;19.75;;;12.75;;
30185;SDS011;31152;49.190;8.122;2023-05-06T03:28:54;22.25;;;12.48;;
30185;SDS011;31152;49.190;8.122;2023-05-06T03:31:24;20.67;;;12.55;;
30185;SDS011;31152;49.190;8.122;2023-05-06T03:33:51;17.88;;;11.00;;
30185;SDS011;31152;49.190;8.122;2023-05-06T03:36:20;14.73;;;10.27;;
30185;SDS011;31152;49.190;8.122;2023-05-06T03:38:50;21.05;;;11.10;;
30185;SDS011;31152;49.190;8.122;2023-05-06T03:41:17;20.60;;;11.48;;
30185;SDS011;31152;49.190;8.122;2023-05-06T03:43:43;17.85;;;10.77;;
30185;SDS011;31152;49.190;8.122;2023-05-06T03:46:10;18.42;;;10.63;;
30185;SDS011;31152;49.190;8.122;2023-05-06T03:48:37;13.15;;;10.38;;
30185;SDS011;31152;49.190;8.122;2023-05-06T03:51:03;16.67;;;9.90;;
30185;SDS011;31152;49.190;8.122;2023-05-06T03:53:30;15.05;;;10.40;;
30185;SDS011;31152;49.190;8.122;2023-05-06T03:55:57;15.35;;;10.35;;
30185;SDS011;31152;49.190;8.122;2023-05-06T03:58:24;13.57;;;9.85;;
30185;SDS011;31152;49.190;8.122;2023-05-06T04:00:50;21.05;;;10.57;;
30185;SDS011;31152;49.190;8.122;2023-05-06T04:03:17;17.52;;;10.32;;
30185;SDS011;31152;49.190;8.122;2023-05-06T04:05:47;16.55;;;10.45;;
30185;SDS011;31152;49.190;8.122;2023-05-06T04:08:15;15.90;;;10.30;;
30185;SDS011;31152;49.190;8.122;2023-05-06T04:10:42;18.55;;;11.65;;
30185;SDS011;31152;49.190;8.122;2023-05-06T04:13:09;17.55;;;10.23;;
30185;SDS011;31152;49.190;8.122;2023-05-06T04:15:36;18.27;;;11.68;;
30185;SDS011;31152;49.190;8.122;2023-05-06T04:18:04;15.18;;;10.73;;
30185;SDS011;31152;49.190;8.122;2023-05-06T04:20:33;21.75;;;12.20;;
30185;SDS011;31152;49.190;8.122;2023-05-06T04:23:00;17.60;;;11.93;;
30185;SDS011;31152;49.190;8.122;2023-05-06T04:25:27;18.50;;;11.55;;
30185;SDS011;31152;49.190;8.122;2023-05-06T04:27:56;17.55;;;11.43;;
30185;SDS011;31152;49.190;8.122;2023-05-06T04:30:25;17.52;;;11.27;;
30185;SDS011;31152;49.190;8.122;2023-05-06T04:32:52;20.80;;;11.73;;
30185;SDS011;31152;49.190;8.122;2023-05-06T04:35:21;19.27;;;11.38;;
30185;SDS011;31152;49.190;8.122;2023-05-06T04:37:48;16.80;;;10.77;;
30185;SDS011;31152;49.190;8.122;2023-05-06T04:40:18;17.40;;;11.20;;
30185;SDS011;31152;49.190;8.122;2023-05-06T04:42:45;20.13;;;11.27;;
30185;SDS011;31152;49.190;8.122;2023-05-06T04:45:11;21.20;;;11.63;;
30185;SDS011;31152;49.190;8.122;2023-05-06T04:47:38;17.50;;;11.00;;
30185;SDS011;31152;49.190;8.122;2023-05-06T04:50:05;17.00;;;10.40;;
30185;SDS011;31152;49.190;8.122;2023-05-06T04:52:33;17.48;;;11.40;;
30185;SDS011;31152;49.190;8.122;2023-05-06T04:55:01;16.98;;;11.07;;
30185;SDS011;31152;49.190;8.122;2023-05-06T04:57:28;15.95;;;10.50;;
30185;SDS011;31152;49.190;8.122;2023-05-06T04:59:56;21.08;;;11.15;;
30185;SDS011;31152;49.190;8.122;2023-05-06T05:02:23;22.77;;;11.98;;
30185;SDS011;31152;49.190;8.122;2023-05-06T05:04:49;18.75;;;11.93;;
30185;SDS011;31152;49.190;8.122;2023-05-06T05:07:16;19.70;;;12.23;;
30185;SDS011;31152;49.190;8.122;2023-05-06T05:09:46;19.95;;;12.68;;
30185;SDS011;31152;49.190;8.122;2023-05-06T05:12:12;20.73;;;13.10;;
30185;SDS011;31152;49.190;8.122;2023-05-06T05:14:41;20.48;;;12.32;;
30185;SDS011;31152;49.190;8.122;2023-05-06T05:17:08;22.65;;;13.30;;
30185;SDS011;31152;49.190;8.122;2023-05-06T05:19:35;21.55;;;13.10;;
30185;SDS011;31152;49.190;8.122;2023-05-06T05:22:02;21.00;;;13.68;;
30185;SDS011;31152;49.190;8.122;2023-05-06T05:24:28;19.42;;;12.23;;
30185;SDS011;31152;49.190;8.122;2023-05-06T05:26:57;20.65;;;12.40;;
30185;SDS011;31152;49.190;8.122;2023-05-06T05:29:27;21.83;;;12.88;;
30185;SDS011;31152;49.190;8.122;2023-05-06T05:31:53;19.30;;;11.75;;
30185;SDS011;31152;49.190;8.122;2023-05-06T05:34:20;18.10;;;11.95;;
30185;SDS011;31152;49.190;8.122;2023-05-06T05:36:47;22.73;;;12.90;;
30185;SDS011;31152;49.190;8.122;2023-05-06T05:39:13;16.52;;;11.45;;
30185;SDS011;31152;49.190;8.122;2023-05-06T05:41:40;17.13;;;11.05;;
30185;SDS011;31152;49.190;8.122;2023-05-06T05:44:07;16.08;;;10.43;;
30185;SDS011;31152;49.190;8.122;2023-05-06T05:46:34;14.48;;;10.20;;
30185;SDS011;31152;49.190;8.122;2023-05-06T05:49:01;18.90;;;11.07;;
30185;SDS011;31152;49.190;8.122;2023-05-06T05:51:27;17.75;;;11.18;;
30185;SDS011;31152;49.190;8.122;2023-05-06T05:53:54;16.73;;;11.27;;
30185;SDS011;31152;49.190;8.122;2023-05-06T05:56:21;16.55;;;11.00;;
30185;SDS011;31152;49.190;8.122;2023-05-06T05:58:48;23.55;;;11.77;;
30185;SDS011;31152;49.190;8.122;2023-05-06T06:01:15;15.98;;;11.85;;
30185;SDS011;31152;49.190;8.122;2023-05-06T06:03:42;16.30;;;10.82;;
30185;SDS011;31152;49.190;8.122;2023-05-06T06:06:09;16.80;;;11.50;;
30185;SDS011;31152;49.190;8.122;2023-05-06T06:08:36;16.55;;;10.95;;
30185;SDS011;31152;49.190;8.122;2023-05-06T06:11:05;14.77;;;11.18;;
30185;SDS011;31152;49.190;8.122;2023-05-06T06:13:32;17.08;;;10.35;;
30185;SDS011;31152;49.190;8.122;2023-05-06T06:15:59;16.73;;;11.13;;
30185;SDS011;31152;49.190;8.122;2023-05-06T06:18:26;16.60;;;11.40;;
30185;SDS011;31152;49.190;8.122;2023-05-06T06:20:53;17.05;;;11.38;;
30185;SDS011;31152;49.190;8.122;2023-05-06T06:23:20;16.45;;;11.13;;
30185;SDS011;31152;49.190;8.122;2023-05-06T06:25:46;16.55;;;11.35;;
30185;SDS011;31152;49.190;8.122;2023-05-06T06:28:13;16.90;;;10.48;;
30185;SDS011;31152;49.190;8.122;2023-05-06T06:30:40;17.15;;;11.00;;
30185;SDS011;31152;49.190;8.122;2023-05-06T06:33:07;14.70;;;10.48;;
30185;SDS011;31152;49.190;8.122;2023-05-06T06:35:34;15.48;;;10.45;;
30185;SDS011;31152;49.190;8.122;2023-05-06T06:38:00;12.80;;;9.43;;
30185;SDS011;31152;49.190;8.122;2023-05-06T06:40:28;14.90;;;9.95;;
30185;SDS011;31152;49.190;8.122;2023-05-06T06:42:54;15.02;;;9.77;;
30185;SDS011;31152;49.190;8.122;2023-05-06T06:45:21;12.30;;;8.52;;
30185;SDS011;31152;49.190;8.122;2023-05-06T06:47:48;12.15;;;8.52;;
30185;SDS011;31152;49.190;8.122;2023-05-06T06:50:15;12.23;;;7.90;;
30185;SDS011;31152;49.190;8.122;2023-05-06T06:52:43;14.73;;;8.23;;
30185;SDS011;31152;49.190;8.122;2023-05-06T06:55:12;13.38;;;8.43;;
30185;SDS011;31152;49.190;8.122;2023-05-06T06:57:39;12.23;;;8.15;;
30185;SDS011;31152;49.190;8.122;2023-05-06T07:00:06;19.17;;;9.18;;
30185;SDS011;31152;49.190;8.122;2023-05-06T07:02:33;15.48;;;10.15;;
30185;SDS011;31152;49.190;8.122;2023-05-06T07:05:01;14.40;;;9.55;;
30185;SDS011;31152;49.190;8.122;2023-05-06T07:07:28;15.55;;;9.95;;
30185;SDS011;31152;49.190;8.122;2023-05-06T07:09:56;12.10;;;9.20;;
30185;SDS011;31152;49.190;8.122;2023-05-06T07:12:24;14.32;;;7.97;;
30185;SDS011;31152;49.190;8.122;2023-05-06T07:14:51;15.50;;;8.65;;
30185;SDS011;31152;49.190;8.122;2023-05-06T07:17:20;12.82;;;8.07;;
30185;SDS011;31152;49.190;8.122;2023-05-06T07:19:47;14.32;;;7.63;;
30185;SDS011;31152;49.190;8.122;2023-05-06T07:22:14;12.68;;;7.78;;
30185;SDS011;31152;49.190;8.122;2023-05-06T07:24:40;11.77;;;7.78;;
30185;SDS011;31152;49.190;8.122;2023-05-06T07:27:12;10.35;;;7.07;;
30185;SDS011;31152;49.190;8.122;2023-05-06T07:29:39;11.80;;;7.75;;
30185;SDS011;31152;49.190;8.122;2023-05-06T07:32:06;12.18;;;7.47;;
30185;SDS011;31152;49.190;8.122;2023-05-06T07:34:33;11.98;;;6.35;;
30185;SDS011;31152;49.190;8.122;2023-05-06T07:37:01;10.57;;;6.22;;
30185;SDS011;31152;49.190;8.122;2023-05-06T07:39:29;10.57;;;5.63;;
30185;SDS011;31152;49.190;8.122;2023-05-06T07:41:56;8.55;;;5.68;;
30185;SDS011;31152;49.190;8.122;2023-05-06T07:44:24;8.23;;;5.82;;
30185;SDS011;31152;49.190;8.122;2023-05-06T07:46:51;8.30;;;5.13;;
30185;SDS011;31152;49.190;8.122;2023-05-06T07:49:18;10.95;;;5.13;;
30185;SDS011;31152;49.190;8.122;2023-05-06T07:51:44;6.78;;;4.20;;
30185;SDS011;31152;49.190;8.122;2023-05-06T07:54:11;5.68;;;4.55;;
30185;SDS011;31152;49.190;8.122;2023-05-06T07:56:38;10.30;;;4.40;;
30185;SDS011;31152;49.190;8.122;2023-05-06T07:59:05;7.85;;;5.07;;
30185;SDS011;31152;49.190;8.122;2023-05-06T08:01:31;7.72;;;5.07;;
30185;SDS011;31152;49.190;8.122;2023-05-06T08:03:58;7.95;;;4.57;;
30185;SDS011;31152;49.190;8.122;2023-05-06T08:06:25;6.30;;;4.80;;
30185;SDS011;31152;49.190;8.122;2023-05-06T08:08:54;7.28;;;5.07;;
30185;SDS011;31152;49.190;8.122;2023-05-06T08:11:21;5.35;;;3.85;;
30185;SDS011;31152;49.190;8.122;2023-05-06T08:13:50;5.68;;;4.03;;
30185;SDS011;31152;49.190;8.122;2023-05-06T08:16:17;6.50;;;3.95;;
30185;SDS011;31152;49.190;8.122;2023-05-06T08:18:44;4.95;;;3.15;;
30185;SDS011;31152;49.190;8.122;2023-05-06T08:21:11;6.53;;;2.65;;
30185;SDS011;31152;49.190;8.122;2023-05-06T08:23:41;6.70;;;2.95;;
30185;SDS011;31152;49.190;8.122;2023-05-06T08:26:07;4.65;;;3.00;;
30185;SDS011;31152;49.190;8.122;2023-05-06T08:28:34;6.45;;;2.20;;
30185;SDS011;31152;49.190;8.122;2023-05-06T08:31:01;5.97;;;2.88;;
30185;SDS011;31152;49.190;8.122;2023-05-06T08:33:28;7.88;;;2.28;;
30185;SDS011;31152;49.190;8.122;2023-05-06T08:35:56;3.95;;;3.20;;
30185;SDS011;31152;49.190;8.122;2023-05-06T08:38:24;4.70;;;3.30;;
30185;SDS011;31152;49.190;8.122;2023-05-06T08:40:51;6.53;;;3.33;;
30185;SDS011;31152;49.190;8.122;2023-05-06T08:43:19;4.35;;;2.70;;
30185;SDS011;31152;49.190;8.122;2023-05-06T08:45:47;7.05;;;3.30;;
30185;SDS011;31152;49.190;8.122;2023-05-06T08:48:15;4.47;;;3.80;;
30185;SDS011;31152;49.190;8.122;2023-05-06T08:50:42;6.20;;;3.50;;
30185;SDS011;31152;49.190;8.122;2023-05-06T08:53:10;4.85;;;3.58;;
30185;SDS011;31152;49.190;8.122;2023-05-06T08:55:40;3.58;;;2.85;;
30185;SDS011;31152;49.190;8.122;2023-05-06T08:58:07;6.22;;;3.60;;
30185;SDS011;31152;49.190;8.122;2023-05-06T09:00:38;6.85;;;3.20;;
30185;SDS011;31152;49.190;8.122;2023-05-06T09:03:05;4.47;;;3.10;;
30185;SDS011;31152;49.190;8.122;2023-05-06T09:05:32;5.15;;;3.40;;
30185;SDS011;31152;49.190;8.122;2023-05-06T09:07:59;4.93;;;2.70;;
30185;SDS011;31152;49.190;8.122;2023-05-06T09:10:30;6.80;;;2.95;;
30185;SDS011;31152;49.190;8.122;2023-05-06T09:12:57;4.82;;;3.33;;
30185;SDS011;31152;49.190;8.122;2023-05-06T09:15:26;4.53;;;2.85;;
30185;SDS011;31152;49.190;8.122;2023-05-06T09:18:07;6.70;;;2.95;;
30185;SDS011;31152;49.190;8.122;2023-05-06T09:20:40;5.75;;;2.75;;
30185;SDS011;31152;49.190;8.122;2023-05-06T09:23:12;4.45;;;2.10;;
30185;SDS011;31152;49.190;8.122;2023-05-06T09:25:40;2.63;;;2.20;;
30185;SDS011;31152;49.190;8.122;2023-05-06T09:28:10;7.25;;;2.30;;
30185;SDS011;31152;49.190;8.122;2023-05-06T09:30:38;2.83;;;2.33;;
30185;SDS011;31152;49.190;8.122;2023-05-06T09:33:09;5.82;;;2.80;;
30185;SDS011;31152;49.190;8.122;2023-05-06T09:35:37;4.22;;;2.20;;
30185;SDS011;31152;49.190;8.122;2023-05-06T09:38:07;4.38;;;2.38;;
30185;SDS011;31152;49.190;8.122;2023-05-06T09:40:35;4.32;;;1.33;;
30185;SDS011;31152;49.190;8.122;2023-05-06T09:43:03;4.10;;;1.92;;
30185;SDS011;31152;49.190;8.122;2023-05-06T09:45:30;3.03;;;1.77;;
30185;SDS011;31152;49.190;8.122;2023-05-06T09:47:58;3.03;;;1.80;;
30185;SDS011;31152;49.190;8.122;2023-05-06T09:50:27;4.00;;;1.33;;
30185;SDS011;31152;49.190;8.122;2023-05-06T09:52:56;3.25;;;2.05;;
30185;SDS011;31152;49.190;8.122;2023-05-06T09:55:25;5.25;;;1.67;;
30185;SDS011;31152;49.190;8.122;2023-05-06T09:57:53;2.90;;;1.50;;
30185;SDS011;31152;49.190;8.122;2023-05-06T10:00:22;2.00;;;1.77;;
30185;SDS011;31152;49.190;8.122;2023-05-06T10:02:53;6.40;;;1.95;;
30185;SDS011;31152;49.190;8.122;2023-05-06T10:05:21;2.97;;;1.55;;
30185;SDS011;31152;49.190;8.122;2023-05-06T10:07:49;1.67;;;1.42;;
30185;SDS011;31152;49.190;8.122;2023-05-06T10:10:18;2.47;;;1.85;;
30185;SDS011;31152;49.190;8.122;2023-05-06T10:12:48;2.70;;;1.58;;
30185;SDS011;31152;49.190;8.122;2023-05-06T10:15:17;3.55;;;1.73;;
30185;SDS011;31152;49.190;8.122;2023-05-06T10:17:44;3.83;;;1.80;;
30185;SDS011;31152;49.190;8.122;2023-05-06T10:20:14;3.55;;;1.77;;
30185;SDS011;31152;49.190;8.122;2023-05-06T10:25:39;3.97;;;1.92;;
30185;SDS011;31152;49.190;8.122;2023-05-06T10:28:11;4.43;;;1.80;;
30185;SDS011;31152;49.190;8.122;2023-05-06T10:30:55;1.92;;;1.50;;
30185;SDS011;31152;49.190;8.122;2023-05-06T10:33:24;3.08;;;1.65;;
30185;SDS011;31152;49.190;8.122;2023-05-06T10:36:02;4.20;;;1.70;;
30185;SDS011;31152;49.190;8.122;2023-05-06T10:38:39;2.80;;;1.55;;
30185;SDS011;31152;49.190;8.122;2023-05-06T10:41:08;2.95;;;1.63;;
30185;SDS011;31152;49.190;8.122;2023-05-06T10:43:39;4.25;;;1.63;;
30185;SDS011;31152;49.190;8.122;2023-05-06T10:46:08;2.83;;;1.73;;
30185;SDS011;31152;49.190;8.122;2023-05-06T10:54:04;5.85;;;2.03;;
30185;SDS011;31152;49.190;8.122;2023-05-06T10:59:10;5.90;;;1.67;;
30185;SDS011;31152;49.190;8.122;2023-05-06T11:01:38;2.35;;;1.52;;
30185;SDS011;31152;49.190;8.122;2023-05-06T11:04:14;2.65;;;1.30;;
30185;SDS011;31152;49.190;8.122;2023-05-06T11:06:45;2.92;;;1.42;;
30185;SDS011;31152;49.190;8.122;2023-05-06T11:09:16;3.58;;;2.85;;
30185;SDS011;31152;49.190;8.122;2023-05-06T11:11:59;2.58;;;1.50;;
30185;SDS011;31152;49.190;8.122;2023-05-06T11:17:03;5.00;;;1.70;;
30185;SDS011;31152;49.190;8.122;2023-05-06T11:19:32;2.28;;;1.40;;
30185;SDS011;31152;49.190;8.122;2023-05-06T11:24:39;1.63;;;1.17;;
30185;SDS011;31152;49.190;8.122;2023-05-06T11:27:07;3.10;;;1.50;;
30185;SDS011;31152;49.190;8.122;2023-05-06T11:29:35;5.00;;;1.35;;
30185;SDS011;31152;49.190;8.122;2023-05-06T11:32:02;4.35;;;1.90;;
30185;SDS011;31152;49.190;8.122;2023-05-06T11:34:33;2.15;;;1.60;;
30185;SDS011;31152;49.190;8.122;2023-05-06T11:37:05;1.90;;;1.20;;
30185;SDS011;31152;49.190;8.122;2023-05-06T11:39:33;1.95;;;1.27;;
30185;SDS011;31152;49.190;8.122;2023-05-06T11:42:06;2.17;;;1.30;;
30185;SDS011;31152;49.190;8.122;2023-05-06T11:44:37;6.18;;;1.73;;
30185;SDS011;31152;49.190;8.122;2023-05-06T11:47:05;2.58;;;1.52;;
30185;SDS011;31152;49.190;8.122;2023-05-06T11:49:42;1.95;;;1.27;;
30185;SDS011;31152;49.190;8.122;2023-05-06T11:52:10;3.60;;;1.60;;
30185;SDS011;31152;49.190;8.122;2023-05-06T11:54:38;2.38;;;1.40;;
30185;SDS011;31152;49.190;8.122;2023-05-06T11:57:07;3.92;;;1.30;;
30185;SDS011;31152;49.190;8.122;2023-05-06T11:59:37;2.05;;;1.48;;
30185;SDS011;31152;49.190;8.122;2023-05-06T12:02:06;1.50;;;1.23;;
30185;SDS011;31152;49.190;8.122;2023-05-06T12:04:38;4.78;;;1.20;;
30185;SDS011;31152;49.190;8.122;2023-05-06T12:07:10;3.03;;;1.20;;
30185;SDS011;31152;49.190;8.122;2023-05-06T12:09:38;3.10;;;1.60;;
30185;SDS011;31152;49.190;8.122;2023-05-06T12:12:09;6.60;;;1.40;;
30185;SDS011;31152;49.190;8.122;2023-05-06T12:14:40;2.47;;;1.40;;
30185;SDS011;31152;49.190;8.122;2023-05-06T12:17:09;3.88;;;1.20;;
30185;SDS011;31152;49.190;8.122;2023-05-06T12:19:37;1.45;;;1.23;;
30185;SDS011;31152;49.190;8.122;2023-05-06T12:22:20;5.85;;;1.77;;
30185;SDS011;31152;49.190;8.122;2023-05-06T12:24:49;2.67;;;1.30;;
30185;SDS011;31152;49.190;8.122;2023-05-06T12:27:32;6.75;;;1.80;;
30185;SDS011;31152;49.190;8.122;2023-05-06T12:30:00;3.35;;;1.70;;
30185;SDS011;31152;49.190;8.122;2023-05-06T12:32:29;3.67;;;1.40;;
30185;SDS011;31152;49.190;8.122;2023-05-06T12:34:56;4.90;;;1.20;;
30185;SDS011;31152;49.190;8.122;2023-05-06T12:37:26;3.38;;;1.40;;
30185;SDS011;31152;49.190;8.122;2023-05-06T12:39:54;4.53;;;1.52;;
30185;SDS011;31152;49.190;8.122;2023-05-06T12:42:24;1.63;;;1.27;;
30185;SDS011;31152;49.190;8.122;2023-05-06T12:44:51;3.22;;;1.20;;
30185;SDS011;31152;49.190;8.122;2023-05-06T12:47:21;2.00;;;1.30;;
30185;SDS011;31152;49.190;8.122;2023-05-06T12:49:53;3.90;;;1.60;;
30185;SDS011;31152;49.190;8.122;2023-05-06T12:52:26;3.58;;;1.48;;
30185;SDS011;31152;49.190;8.122;2023-05-06T12:54:55;1.95;;;1.38;;
30185;SDS011;31152;49.190;8.122;2023-05-06T12:57:22;2.42;;;1.25;;
30185;SDS011;31152;49.190;8.122;2023-05-06T12:59:51;2.67;;;1.30;;
30185;SDS011;31152;49.190;8.122;2023-05-06T13:02:18;3.13;;;1.30;;
30185;SDS011;31152;49.190;8.122;2023-05-06T13:04:46;2.08;;;1.05;;
30185;SDS011;31152;49.190;8.122;2023-05-06T13:07:15;2.80;;;1.10;;
30185;SDS011;31152;49.190;8.122;2023-05-06T13:09:42;4.10;;;1.55;;
30185;SDS011;31152;49.190;8.122;2023-05-06T13:12:09;3.95;;;1.40;;
30185;SDS011;31152;49.190;8.122;2023-05-06T13:14:38;3.90;;;1.33;;
30185;SDS011;31152;49.190;8.122;2023-05-06T13:17:05;2.88;;;1.25;;
30185;SDS011;31152;49.190;8.122;2023-05-06T13:19:35;4.07;;;1.13;;
30185;SDS011;31152;49.190;8.122;2023-05-06T13:22:02;3.03;;;1.30;;
30185;SDS011;31152;49.190;8.122;2023-05-06T13:24:29;1.70;;;1.15;;
30185;SDS011;31152;49.190;8.122;2023-05-06T13:26:57;1.45;;;1.08;;
30185;SDS011;31152;49.190;8.122;2023-05-06T13:29:26;2.33;;;1.10;;
30185;SDS011;31152;49.190;8.122;2023-05-06T13:31:54;4.40;;;1.20;;
30185;SDS011;31152;49.190;8.122;2023-05-06T13:34:23;3.25;;;1.40;;
30185;SDS011;31152;49.190;8.122;2023-05-06T13:36:53;3.40;;;1.50;;
30185;SDS011;31152;49.190;8.122;2023-05-06T13:39:20;3.70;;;1.35;;
30185;SDS011;31152;49.190;8.122;2023-05-06T13:41:49;1.83;;;1.30;;
30185;SDS011;31152;49.190;8.122;2023-05-06T13:44:19;1.75;;;1.27;;
30185;SDS011;31152;49.190;8.122;2023-05-06T13:46:47;3.63;;;1.40;;
30185;SDS011;31152;49.190;8.122;2023-05-06T13:49:14;2.47;;;1.40;;
30185;SDS011;31152;49.190;8.122;2023-05-06T13:51:40;4.75;;;1.58;;
30185;SDS011;31152;49.190;8.122;2023-05-06T13:54:07;4.47;;;1.20;;
30185;SDS011;31152;49.190;8.122;2023-05-06T13:56:34;2.55;;;1.20;;
30185;SDS011;31152;49.190;8.122;2023-05-06T13:59:00;3.92;;;1.80;;
30185;SDS011;31152;49.190;8.122;2023-05-06T14:01:27;3.92;;;1.10;;
30185;SDS011;31152;49.190;8.122;2023-05-06T14:03:56;2.35;;;1.10;;
30185;SDS011;31152;49.190;8.122;2023-05-06T14:06:23;4.68;;;1.17;;
30185;SDS011;31152;49.190;8.122;2023-05-06T14:08:52;3.42;;;1.10;;
30185;SDS011;31152;49.190;8.122;2023-05-06T14:11:19;2.38;;;1.20;;
30185;SDS011;31152;49.190;8.122;2023-05-06T14:13:46;4.00;;;0.90;;
30185;SDS011;31152;49.190;8.122;2023-05-06T14:16:13;1.83;;;1.10;;
30185;SDS011;31152;49.190;8.122;2023-05-06T14:18:41;4.03;;;1.20;;
30185;SDS011;31152;49.190;8.122;2023-05-06T14:21:08;2.45;;;1.15;;
30185;SDS011;31152;49.190;8.122;2023-05-06T14:23:35;1.80;;;1.00;;
30185;SDS011;31152;49.190;8.122;2023-05-06T14:26:03;1.65;;;1.10;;
30185;SDS011;31152;49.190;8.122;2023-05-06T14:28:29;2.03;;;1.30;;
30185;SDS011;31152;49.190;8.122;2023-05-06T14:30:56;6.95;;;1.13;;
30185;SDS011;31152;49.190;8.122;2023-05-06T14:33:23;1.70;;;1.00;;
30185;SDS011;31152;49.190;8.122;2023-05-06T14:35:50;2.42;;;0.98;;
30185;SDS011;31152;49.190;8.122;2023-05-06T14:38:19;1.80;;;1.20;;
30185;SDS011;31152;49.190;8.122;2023-05-06T14:40:46;3.50;;;1.30;;
30185;SDS011;31152;49.190;8.122;2023-05-06T14:43:15;2.92;;;1.00;;
30185;SDS011;31152;49.190;8.122;2023-05-06T14:45:42;1.33;;;1.00;;
30185;SDS011;31152;49.190;8.122;2023-05-06T14:48:09;2.03;;;1.25;;
30185;SDS011;31152;49.190;8.122;2023-05-06T14:50:38;2.15;;;1.08;;
30185;SDS011;31152;49.190;8.122;2023-05-06T14:53:05;1.80;;;1.00;;
30185;SDS011;31152;49.190;8.122;2023-05-06T14:55:31;4.15;;;1.40;;
30185;SDS011;31152;49.190;8.122;2023-05-06T14:57:58;1.55;;;1.05;;
30185;SDS011;31152;49.190;8.122;2023-05-06T15:00:27;1.90;;;1.00;;
30185;SDS011;31152;49.190;8.122;2023-05-06T15:02:54;1.48;;;1.00;;
30185;SDS011;31152;49.190;8.122;2023-05-06T15:05:21;1.98;;;1.00;;
30185;SDS011;31152;49.190;8.122;2023-05-06T15:07:48;1.45;;;0.90;;
30185;SDS011;31152;49.190;8.122;2023-05-06T15:10:15;1.92;;;1.10;;
30185;SDS011;31152;49.190;8.122;2023-05-06T15:12:42;2.42;;;1.40;;